createdAt,value
2018-12-19T00:00:18.855Z,23
2018-12-19T00:01:28.042Z,22.92
2018-12-19T00:02:37.100Z,22.97
2018-12-19T00:03:46.848Z,22.91
2018-12-19T00:04:56.192Z,22.95
2018-12-19T00:06:06.118Z,22.86
2018-12-19T00:07:15.545Z,22.91
2018-12-19T00:08:25.061Z,22.85
2018-12-19T00:09:34.670Z,22.82
2018-12-19T00:10:44.131Z,22.79
2018-12-19T00:11:53.791Z,22.75
2018-12-19T00:13:02.891Z,22.7
2018-12-19T00:14:12.403Z,22.7
2018-12-19T00:15:21.640Z,22.7
2018-12-19T00:16:30.874Z,22.72
2018-12-19T00:17:40.541Z,22.68
2018-12-19T00:18:49.690Z,22.61
2018-12-19T00:19:58.850Z,22.7
2018-12-19T00:21:08.291Z,22.65
2018-12-19T00:22:18.243Z,22.62
2018-12-19T00:23:27.634Z,22.6
2018-12-19T00:24:37.141Z,22.6
2018-12-19T00:25:46.078Z,22.58
2018-12-19T00:26:55.090Z,22.57
2018-12-19T00:28:04.136Z,22.65
2018-12-19T00:29:13.460Z,22.55
2018-12-19T00:30:22.865Z,22.57
2018-12-19T00:31:32.216Z,22.6
2018-12-19T00:32:41.790Z,22.55
2018-12-19T00:33:50.687Z,22.58
2018-12-19T00:35:00.109Z,22.58
2018-12-19T00:36:09.243Z,22.46
2018-12-19T00:37:18.521Z,22.51
2018-12-19T00:38:28.156Z,22.42
2018-12-19T00:39:37.151Z,22.49
2018-12-19T00:40:46.834Z,22.47
2018-12-19T00:41:56.286Z,22.45
2018-12-19T00:43:05.560Z,22.37
2018-12-19T00:44:14.779Z,22.39
2018-12-19T00:45:23.799Z,22.45
2018-12-19T00:46:33.608Z,22.35
2018-12-19T00:47:42.411Z,22.36
2018-12-19T00:48:51.688Z,22.36
2018-12-19T00:50:00.808Z,22.39
2018-12-19T00:51:10.130Z,22.37
2018-12-19T00:52:19.472Z,22.37
2018-12-19T00:53:28.834Z,22.27
2018-12-19T00:54:37.947Z,22.31
2018-12-19T00:55:47.379Z,22.28
2018-12-19T00:56:56.494Z,22.35
2018-12-19T00:58:05.672Z,22.27
2018-12-19T00:59:15.098Z,22.27
2018-12-19T01:00:24.270Z,22.3
2018-12-19T01:01:33.896Z,22.28
2018-12-19T01:02:43.485Z,22.28
2018-12-19T01:03:54.502Z,22.25
2018-12-19T01:05:04.102Z,22.2
2018-12-19T01:06:13.712Z,22.27
2018-12-19T01:07:23.170Z,22.24
2018-12-19T01:08:32.497Z,22.2
2018-12-19T01:09:41.781Z,22.17
2018-12-19T01:10:50.935Z,22.21
2018-12-19T01:12:00.524Z,22.2
2018-12-19T01:13:09.840Z,22.22
2018-12-19T01:14:18.886Z,22.2
2018-12-19T01:15:27.931Z,22.2
2018-12-19T01:16:36.964Z,22.22
2018-12-19T01:17:46.857Z,22.24
2018-12-19T01:18:56.090Z,22.21
2018-12-19T01:20:05.720Z,22.15
2018-12-19T01:21:15.225Z,22.24
2018-12-19T01:22:24.921Z,22.1
2018-12-19T01:23:34.607Z,22.18
2018-12-19T01:24:43.419Z,22.07
2018-12-19T01:25:52.852Z,22.14
2018-12-19T01:27:02.525Z,22.03
2018-12-19T01:28:11.826Z,22.1
2018-12-19T01:29:21.396Z,22.06
2018-12-19T01:30:30.815Z,22.09
2018-12-19T01:31:40.447Z,22.15
2018-12-19T01:32:49.941Z,22.07
2018-12-19T01:33:59.405Z,22.12
2018-12-19T01:35:08.806Z,22.07
2018-12-19T01:36:18.193Z,22.07
2018-12-19T01:37:27.628Z,22.03
2018-12-19T01:38:37.131Z,22
2018-12-19T01:39:46.684Z,21.94
2018-12-19T01:40:56.164Z,22.1
2018-12-19T01:42:05.476Z,22.07
2018-12-19T01:43:15.194Z,21.98
2018-12-19T01:44:25.253Z,21.98
2018-12-19T01:45:34.387Z,21.96
2018-12-19T01:46:43.603Z,21.98
2018-12-19T01:47:52.832Z,21.96
2018-12-19T01:49:02.301Z,21.98
2018-12-19T01:50:11.997Z,21.96
2018-12-19T01:51:21.822Z,21.99
2018-12-19T01:52:31.028Z,22
2018-12-19T01:53:41.079Z,21.9
2018-12-19T01:54:50.606Z,22.02
2018-12-19T01:56:00.413Z,22
2018-12-19T01:57:10.280Z,21.99
2018-12-19T01:58:20.319Z,21.94
2018-12-19T01:59:29.667Z,21.98
2018-12-19T02:00:38.962Z,21.94
2018-12-19T02:01:48.547Z,21.99
2018-12-19T02:02:58.641Z,21.99
2018-12-19T02:04:07.830Z,21.94
2018-12-19T02:05:17.536Z,21.94
2018-12-19T02:06:27.123Z,22
2018-12-19T02:07:36.599Z,21.99
2018-12-19T02:08:46.345Z,21.92
2018-12-19T02:09:56.278Z,21.99
2018-12-19T02:11:05.529Z,21.88
2018-12-19T02:12:15.005Z,21.83
2018-12-19T02:13:24.727Z,21.92
2018-12-19T02:14:34.302Z,21.94
2018-12-19T02:15:43.290Z,21.91
2018-12-19T02:16:52.878Z,21.92
2018-12-19T02:18:02.068Z,21.9
2018-12-19T02:19:11.461Z,21.86
2018-12-19T02:20:21.312Z,21.92
2018-12-19T02:21:30.625Z,21.92
2018-12-19T02:22:40.463Z,21.92
2018-12-19T02:23:49.334Z,21.92
2018-12-19T02:24:58.365Z,21.77
2018-12-19T02:26:07.773Z,21.83
2018-12-19T02:27:17.046Z,21.88
2018-12-19T02:28:26.467Z,21.82
2018-12-19T02:29:36.045Z,21.84
2018-12-19T02:30:45.597Z,21.82
2018-12-19T02:31:55.298Z,21.75
2018-12-19T02:33:04.449Z,21.74
2018-12-19T02:34:13.606Z,21.84
2018-12-19T02:35:22.655Z,21.77
2018-12-19T02:36:32.069Z,21.83
2018-12-19T02:37:41.280Z,21.75
2018-12-19T02:38:51.007Z,21.77
2018-12-19T02:40:00.681Z,21.77
2018-12-19T02:41:10.478Z,21.8
2018-12-19T02:42:20.105Z,21.77
2018-12-19T02:43:29.729Z,21.79
2018-12-19T02:44:39.051Z,21.75
2018-12-19T02:45:47.925Z,21.79
2018-12-19T02:46:57.095Z,21.74
2018-12-19T02:48:06.751Z,21.72
2018-12-19T02:49:16.940Z,21.69
2018-12-19T02:50:26.600Z,21.77
2018-12-19T02:51:35.744Z,21.74
2018-12-19T02:52:44.538Z,21.71
2018-12-19T02:53:53.931Z,21.69
2018-12-19T02:55:03.313Z,21.68
2018-12-19T02:56:12.713Z,21.68
2018-12-19T02:57:22.066Z,21.71
2018-12-19T02:58:31.465Z,21.68
2018-12-19T02:59:41.062Z,21.65
2018-12-19T03:00:50.471Z,21.65
2018-12-19T03:01:59.895Z,21.65
2018-12-19T03:03:09.438Z,21.65
2018-12-19T03:04:19.107Z,21.62
2018-12-19T03:05:28.068Z,21.65
2018-12-19T03:06:37.647Z,21.62
2018-12-19T03:07:47.543Z,21.62
2018-12-19T03:08:56.511Z,21.62
2018-12-19T03:10:06.020Z,21.61
2018-12-19T03:11:15.878Z,21.65
2018-12-19T03:12:24.787Z,21.61
2018-12-19T03:13:34.045Z,21.59
2018-12-19T03:14:43.601Z,21.61
2018-12-19T03:15:53.349Z,21.61
2018-12-19T03:17:03.516Z,21.58
2018-12-19T03:18:12.390Z,21.61
2018-12-19T03:19:22.281Z,21.61
2018-12-19T03:20:32.248Z,21.54
2018-12-19T03:21:41.672Z,21.61
2018-12-19T03:22:51.070Z,21.53
2018-12-19T03:24:00.709Z,21.54
2018-12-19T03:25:10.130Z,21.59
2018-12-19T03:26:19.769Z,21.52
2018-12-19T03:27:30.004Z,21.5
2018-12-19T03:28:39.378Z,21.58
2018-12-19T03:29:49.539Z,21.56
2018-12-19T03:30:59.262Z,21.61
2018-12-19T03:32:08.687Z,21.58
2018-12-19T03:33:18.418Z,21.56
2018-12-19T03:34:27.540Z,21.46
2018-12-19T03:35:37.314Z,21.54
2018-12-19T03:36:46.598Z,21.56
2018-12-19T03:37:55.812Z,21.47
2018-12-19T03:39:05.402Z,21.52
2018-12-19T03:40:15.137Z,21.52
2018-12-19T03:41:24.132Z,21.52
2018-12-19T03:42:33.866Z,21.44
2018-12-19T03:43:43.216Z,21.59
2018-12-19T03:44:52.544Z,21.54
2018-12-19T03:46:01.341Z,21.44
2018-12-19T03:47:10.929Z,21.49
2018-12-19T03:48:20.109Z,21.56
2018-12-19T03:49:29.537Z,21.43
2018-12-19T03:50:51.809Z,21.47
2018-12-19T03:52:01.476Z,21.53
2018-12-19T03:53:11.164Z,21.43
2018-12-19T03:54:20.845Z,21.53
2018-12-19T03:55:30.373Z,21.5
2018-12-19T03:56:39.497Z,21.5
2018-12-19T03:57:48.915Z,21.46
2018-12-19T03:58:58.044Z,21.46
2018-12-19T04:00:07.780Z,21.52
2018-12-19T04:01:17.008Z,21.43
2018-12-19T04:02:26.406Z,21.49
2018-12-19T04:03:36.186Z,21.38
2018-12-19T04:04:46.134Z,21.52
2018-12-19T04:05:55.601Z,21.43
2018-12-19T04:07:04.444Z,21.37
2018-12-19T04:08:13.866Z,21.43
2018-12-19T04:09:22.957Z,21.37
2018-12-19T04:10:32.499Z,21.44
2018-12-19T04:11:42.163Z,21.42
2018-12-19T04:12:51.487Z,21.38
2018-12-19T04:14:00.874Z,21.47
2018-12-19T04:15:10.341Z,21.47
2018-12-19T04:16:20.270Z,21.46
2018-12-19T04:17:29.970Z,21.4
2018-12-19T04:18:39.755Z,21.42
2018-12-19T04:19:49.482Z,21.35
2018-12-19T04:20:58.661Z,21.32
2018-12-19T04:22:07.762Z,21.4
2018-12-19T04:23:17.043Z,21.42
2018-12-19T04:24:25.917Z,21.43
2018-12-19T04:25:35.289Z,21.42
2018-12-19T04:26:44.718Z,21.4
2018-12-19T04:27:54.219Z,21.35
2018-12-19T04:29:03.832Z,21.4
2018-12-19T04:30:13.552Z,21.34
2018-12-19T04:31:22.748Z,21.37
2018-12-19T04:32:32.819Z,21.34
2018-12-19T04:33:42.806Z,21.37
2018-12-19T04:34:52.244Z,21.34
2018-12-19T04:36:02.400Z,21.35
2018-12-19T04:37:12.612Z,21.37
2018-12-19T04:38:21.668Z,21.38
2018-12-19T04:39:31.028Z,21.37
2018-12-19T04:40:40.093Z,21.4
2018-12-19T04:41:49.229Z,21.42
2018-12-19T04:42:58.833Z,21.4
2018-12-19T04:44:08.499Z,21.34
2018-12-19T04:45:18.264Z,21.4
2018-12-19T04:46:27.586Z,21.29
2018-12-19T04:47:36.990Z,21.34
2018-12-19T04:48:46.813Z,21.32
2018-12-19T04:49:56.159Z,21.29
2018-12-19T04:51:05.379Z,21.32
2018-12-19T04:52:15.083Z,21.35
2018-12-19T04:53:24.546Z,21.35
2018-12-19T04:54:34.232Z,21.32
2018-12-19T04:55:44.034Z,21.35
2018-12-19T04:56:53.539Z,21.38
2018-12-19T04:58:03.788Z,21.37
2018-12-19T04:59:13.831Z,21.29
2018-12-19T05:00:23.666Z,21.34
2018-12-19T05:01:33.314Z,21.29
2018-12-19T05:02:42.617Z,21.28
2018-12-19T05:03:52.361Z,21.32
2018-12-19T05:05:01.886Z,21.31
2018-12-19T05:06:11.320Z,21.29
2018-12-19T05:07:20.131Z,21.29
2018-12-19T05:08:30.235Z,21.29
2018-12-19T05:09:39.907Z,21.32
2018-12-19T05:10:48.716Z,21.28
2018-12-19T05:11:58.413Z,21.28
2018-12-19T05:13:07.630Z,21.38
2018-12-19T05:14:17.265Z,21.24
2018-12-19T05:15:26.828Z,21.22
2018-12-19T05:16:36.108Z,21.25
2018-12-19T05:17:45.507Z,21.32
2018-12-19T05:18:55.167Z,21.34
2018-12-19T05:20:04.957Z,21.27
2018-12-19T05:21:14.750Z,21.32
2018-12-19T05:22:24.128Z,21.24
2018-12-19T05:23:33.907Z,21.24
2018-12-19T05:24:43.744Z,21.24
2018-12-19T05:25:53.328Z,21.24
2018-12-19T05:27:02.229Z,21.31
2018-12-19T05:28:11.673Z,21.29
2018-12-19T05:29:21.661Z,21.28
2018-12-19T05:30:30.581Z,21.27
2018-12-19T05:31:39.993Z,21.27
2018-12-19T05:32:50.055Z,21.25
2018-12-19T05:33:59.430Z,21.21
2018-12-19T05:35:08.910Z,21.25
2018-12-19T05:36:18.314Z,21.27
2018-12-19T05:37:27.755Z,21.29
2018-12-19T05:38:37.494Z,21.31
2018-12-19T05:39:47.019Z,21.21
2018-12-19T05:40:56.619Z,21.27
2018-12-19T05:42:05.872Z,21.25
2018-12-19T05:43:15.878Z,21.22
2018-12-19T05:44:25.014Z,21.25
2018-12-19T05:45:34.424Z,21.28
2018-12-19T05:46:43.389Z,21.28
2018-12-19T05:47:53.085Z,21.28
2018-12-19T05:49:02.028Z,21.17
2018-12-19T05:50:11.350Z,21.19
2018-12-19T05:51:20.488Z,21.28
2018-12-19T05:52:29.851Z,21.25
2018-12-19T05:53:39.017Z,21.17
2018-12-19T05:54:48.652Z,21.22
2018-12-19T05:55:58.463Z,21.27
2018-12-19T05:57:08.253Z,21.25
2018-12-19T05:58:17.649Z,21.21
2018-12-19T05:59:26.744Z,21.19
2018-12-19T06:00:36.579Z,21.24
2018-12-19T06:01:45.807Z,21.19
2018-12-19T06:02:55.281Z,21.16
2018-12-19T06:04:04.709Z,21.24
2018-12-19T06:05:13.570Z,21.24
2018-12-19T06:06:23.110Z,21.22
2018-12-19T06:07:32.114Z,21.21
2018-12-19T06:08:40.941Z,21.19
2018-12-19T06:09:50.362Z,21.28
2018-12-19T06:10:59.510Z,21.24
2018-12-19T06:12:09.112Z,21.22
2018-12-19T06:13:18.645Z,21.19
2018-12-19T06:14:28.133Z,21.21
2018-12-19T06:15:37.713Z,21.22
2018-12-19T06:16:46.896Z,21.22
2018-12-19T06:17:56.464Z,21.16
2018-12-19T06:19:06.202Z,21.19
2018-12-19T06:20:15.896Z,21.16
2018-12-19T06:21:25.617Z,21.14
2018-12-19T06:22:34.791Z,21.21
2018-12-19T06:23:44.285Z,21.17
2018-12-19T06:24:54.057Z,21.19
2018-12-19T06:26:03.748Z,21.12
2018-12-19T06:27:13.288Z,21.16
2018-12-19T06:28:23.203Z,21.13
2018-12-19T06:29:32.486Z,21.14
2018-12-19T06:30:42.276Z,21.16
2018-12-19T06:31:51.401Z,21.14
2018-12-19T06:33:00.795Z,21.1
2018-12-19T06:34:09.707Z,21.17
2018-12-19T06:35:19.012Z,21.1
2018-12-19T06:36:28.468Z,21.13
2018-12-19T06:37:38.469Z,21.16
2018-12-19T06:38:47.417Z,21.14
2018-12-19T06:39:57.155Z,21.13
2018-12-19T06:41:06.419Z,21.16
2018-12-19T06:42:15.874Z,21.09
2018-12-19T06:43:25.267Z,21.12
2018-12-19T06:44:34.713Z,21.14
2018-12-19T06:45:44.469Z,21.14
2018-12-19T06:46:53.904Z,21.1
2018-12-19T06:48:03.999Z,21.14
2018-12-19T06:49:13.165Z,21.16
2018-12-19T06:50:22.802Z,21.13
2018-12-19T06:51:32.415Z,21.19
2018-12-19T06:52:41.968Z,21.17
2018-12-19T06:53:51.662Z,21.13
2018-12-19T06:55:01.004Z,21.16
2018-12-19T06:56:10.434Z,21.03
2018-12-19T06:57:19.638Z,21.16
2018-12-19T06:58:29.111Z,21.09
2018-12-19T06:59:38.528Z,21.14
2018-12-19T07:00:47.452Z,21.07
2018-12-19T07:01:56.573Z,21.01
2018-12-19T07:03:05.897Z,21.16
2018-12-19T07:04:14.934Z,21.12
2018-12-19T07:05:24.447Z,21.13
2018-12-19T07:06:34.356Z,21.09
2018-12-19T07:07:44.124Z,21.01
2018-12-19T07:08:53.755Z,21.12
2018-12-19T07:10:03.747Z,21.13
2018-12-19T07:11:13.343Z,21.06
2018-12-19T07:12:22.720Z,21.13
2018-12-19T07:13:31.877Z,21.09
2018-12-19T07:14:41.056Z,21.1
2018-12-19T07:15:51.442Z,21.09
2018-12-19T07:17:01.081Z,21.04
2018-12-19T07:18:10.646Z,21.01
2018-12-19T07:19:20.608Z,21.01
2018-12-19T07:20:29.981Z,21.03
2018-12-19T07:21:39.881Z,21.01
2018-12-19T07:22:49.503Z,21.04
2018-12-19T07:23:59.263Z,21.04
2018-12-19T07:25:08.616Z,21.04
2018-12-19T07:26:18.608Z,21.07
2018-12-19T07:27:28.241Z,21.01
2018-12-19T07:28:37.669Z,21.07
2018-12-19T07:29:47.185Z,21.09
2018-12-19T07:30:56.984Z,21.03
2018-12-19T07:32:06.961Z,21.03
2018-12-19T07:33:16.399Z,21.09
2018-12-19T07:34:25.573Z,21.06
2018-12-19T07:35:34.976Z,21.07
2018-12-19T07:36:44.270Z,21.07
2018-12-19T07:37:53.653Z,21.06
2018-12-19T07:39:03.273Z,21.07
2018-12-19T07:40:12.905Z,21.06
2018-12-19T07:41:22.347Z,21.09
2018-12-19T07:42:32.006Z,21.06
2018-12-19T07:43:41.707Z,21.04
2018-12-19T07:44:50.971Z,21.04
2018-12-19T07:46:00.255Z,21.04
2018-12-19T07:47:09.380Z,21.03
2018-12-19T07:48:18.727Z,21.09
2018-12-19T07:49:28.073Z,21.06
2018-12-19T07:50:37.617Z,21.09
2018-12-19T07:51:47.488Z,21.04
2018-12-19T07:52:56.864Z,21.09
2018-12-19T07:54:06.378Z,21.07
2018-12-19T07:55:15.524Z,21.07
2018-12-19T07:56:25.088Z,21.06
2018-12-19T07:57:34.704Z,21.03
2018-12-19T07:58:44.446Z,21.07
2018-12-19T07:59:53.868Z,21.06
2018-12-19T08:01:03.573Z,21.06
2018-12-19T08:02:13.270Z,21.09
2018-12-19T08:03:22.604Z,21.06
2018-12-19T08:04:31.819Z,21.03
2018-12-19T08:05:40.800Z,21.06
2018-12-19T08:06:49.656Z,21.03
2018-12-19T08:07:59.494Z,21.1
2018-12-19T08:09:09.477Z,21.06
2018-12-19T08:10:18.982Z,21.03
2018-12-19T08:11:28.419Z,21.04
2018-12-19T08:12:40.865Z,21.14
2018-12-19T08:13:50.477Z,21.04
2018-12-19T08:14:59.851Z,21.06
2018-12-19T08:16:09.325Z,21.06
2018-12-19T08:17:19.218Z,21.03
2018-12-19T08:18:28.624Z,21.1
2018-12-19T08:19:37.973Z,21.03
2018-12-19T08:20:47.347Z,21.03
2018-12-19T08:21:57.101Z,21.06
2018-12-19T08:23:06.270Z,21.06
2018-12-19T08:24:15.853Z,21.06
2018-12-19T08:25:25.725Z,21.06
2018-12-19T08:26:35.562Z,21.06
2018-12-19T08:27:45.127Z,21.06
2018-12-19T08:28:54.406Z,21.12
2018-12-19T08:30:03.584Z,21.04
2018-12-19T08:31:13.017Z,21.12
2018-12-19T08:32:22.707Z,21.06
2018-12-19T08:33:32.807Z,21.06
2018-12-19T08:34:42.485Z,21.12
2018-12-19T08:35:51.917Z,21.06
2018-12-19T08:37:01.482Z,21.07
2018-12-19T08:38:10.951Z,21.01
2018-12-19T08:39:20.397Z,21.16
2018-12-19T08:40:29.200Z,21.14
2018-12-19T08:41:39.150Z,21.12
2018-12-19T08:42:49.088Z,21.14
2018-12-19T08:43:58.813Z,21.1
2018-12-19T08:45:09.016Z,21.13
2018-12-19T08:46:19.314Z,21.12
2018-12-19T08:47:29.558Z,21.13
2018-12-19T08:48:39.480Z,21.21
2018-12-19T08:49:49.221Z,21.14
2018-12-19T08:50:58.734Z,21.16
2018-12-19T08:52:08.196Z,21.14
2018-12-19T08:53:17.187Z,21.1
2018-12-19T08:54:26.754Z,21.13
2018-12-19T08:55:36.176Z,21.09
2018-12-19T08:56:45.829Z,21.13
2018-12-19T08:57:55.008Z,21.13
2018-12-19T08:59:04.379Z,21.07
2018-12-19T09:00:14.131Z,21.13
2018-12-19T09:01:23.484Z,21.12
2018-12-19T09:02:32.663Z,21.1
2018-12-19T09:03:42.113Z,21.14
2018-12-19T09:04:51.288Z,21.12
2018-12-19T09:06:00.873Z,21.13
2018-12-19T09:07:10.332Z,21.16
2018-12-19T09:08:19.787Z,21.13
2018-12-19T09:09:29.329Z,21.16
2018-12-19T09:10:39.253Z,21.04
2018-12-19T09:11:48.211Z,21.17
2018-12-19T09:12:57.454Z,21.1
2018-12-19T09:14:07.086Z,21.03
2018-12-19T09:15:16.972Z,21.12
2018-12-19T09:16:32.817Z,21.19
2018-12-19T09:17:41.656Z,21.19
2018-12-19T09:18:50.725Z,21.06
2018-12-19T09:20:00.369Z,21.1
2018-12-19T09:21:09.536Z,21.06
2018-12-19T09:22:18.922Z,21.04
2018-12-19T09:23:28.797Z,21.12
2018-12-19T09:24:38.252Z,21.06
2018-12-19T09:25:47.352Z,20.98
2018-12-19T09:26:57.764Z,21.04
2018-12-19T09:28:06.908Z,21.03
2018-12-19T09:29:16.759Z,20.99
2018-12-19T09:30:26.532Z,20.99
2018-12-19T09:31:35.639Z,20.99
2018-12-19T09:32:45.309Z,20.95
2018-12-19T09:33:54.873Z,20.91
2018-12-19T09:35:03.855Z,20.99
2018-12-19T09:36:13.390Z,20.94
2018-12-19T09:37:23.209Z,20.92
2018-12-19T09:38:32.848Z,20.91
2018-12-19T09:39:42.229Z,20.94
2018-12-19T09:40:51.796Z,20.94
2018-12-19T09:42:01.342Z,20.94
2018-12-19T09:43:10.611Z,20.85
2018-12-19T09:44:19.975Z,20.82
2018-12-19T09:45:29.385Z,20.85
2018-12-19T09:46:39.455Z,20.91
2018-12-19T09:47:48.579Z,20.8
2018-12-19T09:48:58.217Z,20.84
2018-12-19T09:50:07.687Z,20.87
2018-12-19T09:51:17.356Z,20.91
2018-12-19T09:52:26.711Z,20.84
2018-12-19T09:53:36.352Z,20.84
2018-12-19T09:54:46.019Z,20.76
2018-12-19T09:55:55.188Z,20.84
2018-12-19T09:57:04.521Z,20.85
2018-12-19T09:58:14.096Z,20.92
2018-12-19T09:59:23.561Z,20.76
2018-12-19T10:00:32.632Z,20.79
2018-12-19T10:01:42.763Z,20.74
2018-12-19T10:02:51.903Z,20.82
2018-12-19T10:04:01.250Z,20.79
2018-12-19T10:05:10.343Z,20.77
2018-12-19T10:06:19.225Z,20.76
2018-12-19T10:07:29.783Z,20.77
2018-12-19T10:08:39.153Z,20.87
2018-12-19T10:09:49.200Z,20.79
2018-12-19T10:10:59.131Z,20.76
2018-12-19T10:12:08.872Z,20.79
2018-12-19T10:13:18.224Z,20.89
2018-12-19T10:14:27.143Z,20.88
2018-12-19T10:15:36.839Z,20.88
2018-12-19T10:16:46.012Z,20.92
2018-12-19T10:17:55.491Z,20.94
2018-12-19T10:19:04.584Z,20.98
2018-12-19T10:20:14.043Z,21.06
2018-12-19T10:21:23.204Z,21.1
2018-12-19T10:22:32.901Z,21.24
2018-12-19T10:23:42.273Z,21.32
2018-12-19T10:24:51.943Z,21.37
2018-12-19T10:26:01.479Z,21.47
2018-12-19T10:27:10.660Z,21.49
2018-12-19T10:28:20.021Z,21.59
2018-12-19T10:29:29.279Z,21.67
2018-12-19T10:30:38.552Z,21.72
2018-12-19T10:31:47.823Z,21.92
2018-12-19T10:32:57.035Z,21.94
2018-12-19T10:34:06.460Z,22
2018-12-19T10:35:16.100Z,21.94
2018-12-19T10:36:25.772Z,22.07
2018-12-19T10:37:34.817Z,22.05
2018-12-19T10:38:43.825Z,22.12
2018-12-19T10:39:53.031Z,22.2
2018-12-19T10:41:02.694Z,22.18
2018-12-19T10:42:11.943Z,22.2
2018-12-19T10:43:21.380Z,22.31
2018-12-19T10:44:30.667Z,22.35
2018-12-19T10:45:40.132Z,22.36
2018-12-19T10:46:49.556Z,22.43
2018-12-19T10:47:59.254Z,22.46
2018-12-19T10:49:08.949Z,22.57
2018-12-19T10:50:18.217Z,22.57
2018-12-19T10:51:27.851Z,22.61
2018-12-19T10:52:37.681Z,22.6
2018-12-19T10:53:46.907Z,22.61
2018-12-19T10:54:56.532Z,22.7
2018-12-19T10:56:06.658Z,22.75
2018-12-19T10:57:15.959Z,22.76
2018-12-19T10:58:25.236Z,22.76
2018-12-19T10:59:34.599Z,22.76
2018-12-19T11:00:43.711Z,22.83
2018-12-19T11:01:53.069Z,22.8
2018-12-19T11:03:02.230Z,22.86
2018-12-19T11:04:11.927Z,22.9
2018-12-19T11:05:21.587Z,22.94
2018-12-19T11:06:31.253Z,22.85
2018-12-19T11:07:41.002Z,22.91
2018-12-19T11:08:50.341Z,22.94
2018-12-19T11:09:59.141Z,22.95
2018-12-19T11:11:08.469Z,22.92
2018-12-19T11:12:17.668Z,22.94
2018-12-19T11:13:26.992Z,22.95
2018-12-19T11:14:36.617Z,22.95
2018-12-19T11:15:46.889Z,22.95
2018-12-19T11:16:56.266Z,22.92
2018-12-19T11:18:06.040Z,22.91
2018-12-19T11:19:16.000Z,22.98
2018-12-19T11:20:25.841Z,22.88
2018-12-19T11:21:35.573Z,22.9
2018-12-19T11:22:44.379Z,22.86
2018-12-19T11:23:53.914Z,22.91
2018-12-19T11:25:03.242Z,22.85
2018-12-19T11:26:13.147Z,22.88
2018-12-19T11:27:22.561Z,22.83
2018-12-19T11:28:32.019Z,22.77
2018-12-19T11:29:41.155Z,22.8
2018-12-19T11:30:50.486Z,22.77
2018-12-19T11:31:59.913Z,22.7
2018-12-19T11:33:09.018Z,22.75
2018-12-19T11:34:18.974Z,22.65
2018-12-19T11:35:28.366Z,22.72
2018-12-19T11:36:37.629Z,22.7
2018-12-19T11:37:46.741Z,22.7
2018-12-19T11:38:56.443Z,22.68
2018-12-19T11:40:06.670Z,22.68
2018-12-19T11:41:16.051Z,22.58
2018-12-19T11:42:25.994Z,22.6
2018-12-19T11:43:35.959Z,22.55
2018-12-19T11:44:45.623Z,22.6
2018-12-19T11:45:54.998Z,22.55
2018-12-19T11:47:04.483Z,22.64
2018-12-19T11:48:14.254Z,22.61
2018-12-19T11:49:23.971Z,22.57
2018-12-19T11:50:32.907Z,22.54
2018-12-19T11:51:42.226Z,22.49
2018-12-19T11:52:52.133Z,22.54
2018-12-19T11:54:01.595Z,22.51
2018-12-19T11:55:11.247Z,22.46
2018-12-19T11:56:20.116Z,22.45
2018-12-19T11:57:30.021Z,22.4
2018-12-19T11:58:39.473Z,22.46
2018-12-19T11:59:48.851Z,22.43
2018-12-19T12:00:58.074Z,22.37
2018-12-19T12:02:07.382Z,22.37
2018-12-19T12:03:16.862Z,22.36
2018-12-19T12:04:26.848Z,22.4
2018-12-19T12:05:36.472Z,22.35
2018-12-19T12:06:45.762Z,22.39
2018-12-19T12:07:55.061Z,22.43
2018-12-19T12:09:04.894Z,22.33
2018-12-19T12:10:14.330Z,22.35
2018-12-19T12:11:23.977Z,22.4
2018-12-19T12:12:33.875Z,22.33
2018-12-19T12:13:44.794Z,22.36
2018-12-19T12:14:53.903Z,22.36
2018-12-19T12:16:03.724Z,22.35
2018-12-19T12:17:13.745Z,22.43
2018-12-19T12:18:23.821Z,22.43
2018-12-19T12:19:33.320Z,22.47
2018-12-19T12:20:42.404Z,22.46
2018-12-19T12:21:51.441Z,22.61
2018-12-19T12:23:00.792Z,22.52
2018-12-19T12:24:10.133Z,22.57
2018-12-19T12:25:19.420Z,22.6
2018-12-19T12:26:28.970Z,22.57
2018-12-19T12:27:38.494Z,22.61
2018-12-19T12:28:48.087Z,22.6
2018-12-19T12:29:57.457Z,22.72
2018-12-19T12:31:06.840Z,22.7
2018-12-19T12:32:16.474Z,22.79
2018-12-19T12:33:25.798Z,22.76
2018-12-19T12:34:35.150Z,22.76
2018-12-19T12:35:44.555Z,22.83
2018-12-19T12:36:53.568Z,22.88
2018-12-19T12:38:03.437Z,22.88
2018-12-19T12:39:13.523Z,22.9
2018-12-19T12:40:22.823Z,22.97
2018-12-19T12:41:33.907Z,23.05
2018-12-19T12:42:43.234Z,23.01
2018-12-19T12:43:52.057Z,23.05
2018-12-19T12:45:01.325Z,23.04
2018-12-19T12:46:11.090Z,23.17
2018-12-19T12:47:20.724Z,23.2
2018-12-19T12:48:30.310Z,23.28
2018-12-19T12:49:39.660Z,23.27
2018-12-19T12:50:48.800Z,23.33
2018-12-19T12:51:58.844Z,23.27
2018-12-19T12:53:07.923Z,23.27
2018-12-19T12:54:17.702Z,23.28
2018-12-19T12:55:27.178Z,23.25
2018-12-19T12:56:36.350Z,23.43
2018-12-19T12:57:46.904Z,23.42
2018-12-19T12:58:56.449Z,23.35
2018-12-19T13:00:05.819Z,23.35
2018-12-19T13:01:15.173Z,23.39
2018-12-19T13:02:24.797Z,23.39
2018-12-19T13:03:33.992Z,23.4
2018-12-19T13:04:43.756Z,23.39
2018-12-19T13:05:53.441Z,23.48
2018-12-19T13:07:02.891Z,23.42
2018-12-19T13:08:12.085Z,23.43
2018-12-19T13:09:21.730Z,23.38
2018-12-19T13:10:36.083Z,23.48
2018-12-19T13:11:45.886Z,23.4
2018-12-19T13:12:55.078Z,23.36
2018-12-19T13:14:04.302Z,23.38
2018-12-19T13:15:14.203Z,23.4
2018-12-19T13:16:23.874Z,23.36
2018-12-19T13:17:33.138Z,23.36
2018-12-19T13:18:42.761Z,23.4
2018-12-19T13:19:51.984Z,23.38
2018-12-19T13:21:01.551Z,23.4
2018-12-19T13:22:10.608Z,23.4
2018-12-19T13:23:20.299Z,23.25
2018-12-19T13:24:29.994Z,23.32
2018-12-19T13:25:39.320Z,23.28
2018-12-19T13:26:48.405Z,23.28
2018-12-19T13:27:57.229Z,23.4
2018-12-19T13:29:07.146Z,23.35
2018-12-19T13:30:15.950Z,23.33
2018-12-19T13:31:25.950Z,23.4
2018-12-19T13:32:35.720Z,23.39
2018-12-19T13:33:46.176Z,23.5
2018-12-19T13:34:55.278Z,23.5
2018-12-19T13:36:04.128Z,23.48
2018-12-19T13:37:13.968Z,23.43
2018-12-19T13:38:23.535Z,23.58
2018-12-19T13:39:32.897Z,23.51
2018-12-19T13:40:42.488Z,23.5
2018-12-19T13:41:52.395Z,23.53
2018-12-19T13:43:01.714Z,23.57
2018-12-19T13:44:11.062Z,23.65
2018-12-19T13:45:21.398Z,23.68
2018-12-19T13:46:30.825Z,23.68
2018-12-19T13:47:40.216Z,23.66
2018-12-19T13:48:49.756Z,23.6
2018-12-19T13:49:58.524Z,23.54
2018-12-19T13:51:07.646Z,23.68
2018-12-19T13:52:16.474Z,23.69
2018-12-19T13:53:25.825Z,23.65
2018-12-19T13:54:35.429Z,23.73
2018-12-19T13:55:45.021Z,23.61
2018-12-19T13:56:54.372Z,23.68
2018-12-19T13:58:09.629Z,23.72
2018-12-19T13:59:19.230Z,23.73
2018-12-19T14:00:28.590Z,23.7
2018-12-19T14:01:38.739Z,23.87
2018-12-19T14:02:48.841Z,23.8
2018-12-19T14:03:58.160Z,23.75
2018-12-19T14:05:08.081Z,23.78
2018-12-19T14:06:17.488Z,23.8
2018-12-19T14:07:27.109Z,23.83
2018-12-19T14:08:36.846Z,23.78
2018-12-19T14:09:46.527Z,23.83
2018-12-19T14:10:57.808Z,23.79
2018-12-19T14:12:12.209Z,23.8
2018-12-19T14:13:22.005Z,23.69
2018-12-19T14:14:31.576Z,23.79
2018-12-19T14:15:40.905Z,23.8
2018-12-19T14:16:50.330Z,23.72
2018-12-19T14:18:00.005Z,23.8
2018-12-19T14:19:09.392Z,23.8
2018-12-19T14:20:18.852Z,23.72
2018-12-19T14:21:28.336Z,23.78
2018-12-19T14:22:37.471Z,23.76
2018-12-19T14:23:46.696Z,23.76
2018-12-19T14:24:56.128Z,23.83
2018-12-19T14:26:05.349Z,23.78
2018-12-19T14:27:14.496Z,23.76
2018-12-19T14:28:23.714Z,23.69
2018-12-19T14:29:33.118Z,23.78
2018-12-19T14:30:42.264Z,23.73
2018-12-19T14:31:51.988Z,23.66
2018-12-19T14:33:00.893Z,23.78
2018-12-19T14:34:10.254Z,23.73
2018-12-19T14:35:19.640Z,23.68
2018-12-19T14:36:29.477Z,23.7
2018-12-19T14:37:38.930Z,23.66
2018-12-19T14:38:48.744Z,23.73
2018-12-19T14:39:58.250Z,23.65
2018-12-19T14:41:07.889Z,23.72
2018-12-19T14:42:23.625Z,23.73
2018-12-19T14:43:33.004Z,23.75
2018-12-19T14:44:42.544Z,23.79
2018-12-19T14:45:51.949Z,23.76
2018-12-19T14:47:01.499Z,23.68
2018-12-19T14:48:10.727Z,23.78
2018-12-19T14:49:20.412Z,23.69
2018-12-19T14:50:30.149Z,23.72
2018-12-19T14:51:40.752Z,23.68
2018-12-19T14:52:49.992Z,23.65
2018-12-19T14:53:59.333Z,23.79
2018-12-19T14:55:09.088Z,23.72
2018-12-19T14:56:18.545Z,23.69
2018-12-19T14:57:27.988Z,23.7
2018-12-19T14:58:38.274Z,23.72